Weather at Norman Y. Mineta San Jose International Airport

Public forecast

Using degrees Fahrenheit for public forecast. Weather courtesy of forecast.io.

Current aviation weather report (METAR) for Norman Y. Mineta San Jose International Airport

Retrieved 2021/09/25 11:53 UTC (20 minutes ago):

KSJC 251153Z AUTO 14004KT 10SM CLR 14/12 A2997 RMK AO2 SLP148 T01390117 10167 20139 58003

Aviation forecast (TAF) for Norman Y. Mineta San Jose International Airport

Retrieved 2021/09/25 12:24 UTC (0 seconds ago):

TAF KSJC 251121Z 2512/2612 14006KT P6SM SCT012 SCT100 FM251800 30010KT P6SM SCT100 FM260600 31006KT P6SM BKN015